Op dit moment wordt er hard gewerkt aan deze versie van Weerstation-Wijk.nl
Het kan zijn dat er dingen nog niet helemaal kloppen of goed werken.

We konden geen weer-waarchuwingen ophalen. Ga rechtstreeks naar de Meteoalarm site : www.meteoalarm.eu en controleer daar .


Weerstation-Wijk.nl. Voor het weer van Wijk bij Duurstede en omstreken



Bezoek ook deze websites:

Template documentation
and downloads

And another site



METAR rapporten vliegvelden

   
EHVK - Volkel Rnlafb, Netherlands
Afstand tot: ZW 18 km
Gewijzigd: Jun 24 2022 11:55 pm
Helder  
Helder  
   Wind: Zuiden 7.4 km/h
Wind: Zuiden 7.4 km/h
Temperatuur: 18°C
Dauwpunt: 15°C
Vochtigheid: 83%
Barometer: 1008 hPa
Bewolking: Helder
Zicht: meer dan 10 km
Bewolking: Helder
EHVK 242155Z AUTO 17004KT 140V200 9999 NCD 18/15 Q1008 BLU
EDLV - Niederrhein, Germany
Afstand tot: ZO 25 km
Gewijzigd: Jun 24 2022 11:50 pm
Helder  
Helder  
   Wind: Zuiden 7.4 km/h
Wind: Zuiden 7.4 km/h
Temperatuur: 17°C
Dauwpunt: 16°C
Vochtigheid: 94%
Barometer: 1008 hPa
Zicht: meer dan 10 km
Bewolking: Helder
EDLV 242150Z 17004KT 150V220 CAVOK 17/16 Q1008
EHDL - Deelen Rnlafb, Netherlands
Afstand tot: N 35 km
Gewijzigd: Jun 24 2022 11:55 pm
Gedeeltelijk bewolkt  
Gedeeltelijk bewolkt  
   Wind: Zuiden 9.3 km/h
Wind: Zuiden 9.3 km/h
Temperatuur: 17°C
Dauwpunt: 15°C
Vochtigheid: 88%
Barometer: 1008 hPa
Bewolking: Gedeeltelijk bewolkt
Zicht: meer dan 10 km
Bewolking: Gedeeltelijk bewolkt 21000 ft
EHDL 242155Z AUTO 17005KT 100V180 9999 SCT210 17/15 Q1008 BLU
EHEH - Eindhoven Rnlafb, Netherlands
Afstand tot: ZW 48 km
Gewijzigd: Jun 24 2022 11:55 pm
Helder  
Helder  
   Wind: ZZO 9.3 km/h
Wind: ZZO 9.3 km/h
Temperatuur: 18°C
Dauwpunt: 16°C
Vochtigheid: 88%
Barometer: 1008 hPa
Bewolking: Helder
Zicht: meer dan 10 km
Bewolking: Helder
EHEH 242155Z AUTO 16005KT 130V200 9999 NCD 18/16 Q1008 BLU
EHGR - Gilze-Rijen Rnla, Netherlands
Afstand tot: WZW 70 km
Gewijzigd: Jun 24 2022 11:55 pm
Helder  
Helder  
   Wind: ZZO 11.1 km/h
Wind: ZZO 11.1 km/h
Temperatuur: 18°C
Dauwpunt: 16°C
Vochtigheid: 88%
Barometer: 1008 hPa
Bewolking: Helder
Zicht: meer dan 10 km
Bewolking: Helder
EHGR 242155Z AUTO 15006KT 9999 NCD 18/16 Q1008 BLU
EBBL - Kleine-Brogel(Ba, Belgium
Afstand tot: ZZW 71 km
Gewijzigd: Jun 24 2022 11:55 pm
Helder  
Helder  
   Wind: Zuiden 7.4 km/h
Wind: Zuiden 7.4 km/h
Temperatuur: 18°C
Dauwpunt: 15°C
Vochtigheid: 83%
Barometer: 1009 hPa
Bewolking: Helder
Bewolking: Helder
EBBL 242155Z AUTO 19004KT //// NCD 18/15 Q1009

Script ontwikkeld door  Saratoga-weather.org Aangepast voor de template door  Weerstation Leuven

U vindt ons ook hier:

UK Metoffice

WeatherCloud

AWEKAS

Apparatuur in gebruik:

Weerstation
Davis VP2 + EU Wireless

Weerprogramma
Weather Display

Webleverancier
WebReus.nl

Davis VP2 + EU Wireless

Weather Display

WebReus.nl


Weerstation-Wijk.nl. Voor het weer van Wijk bij Duurstede en omstreken